PWSweather.com
Personal Weather Stations
Station Observations
ONALIVA
None, Vilanova I La GeltruES 08800

NoneVilanova I La GeltruES 08800

Lat: 41.22347, Lon: 1.72726

Elevation: 47

Station Type: W-8681

Latest ConditionsUpdated 5:52:01 PM GMT+01:01 Sunday, Sep 23, 2018
Currently Today's Max Today's Min Today's Average
Temperature 83.1°F28.4°C 87.8°F31.0°C 72.7°F22.6°C 79.1°F26.2°C
Dew Point 70.1°F21.2°C 75.0°F23.9°C 66.6°F19.2°C 72.4°F22.4°C
Winds 5.4 mph SW8.7 kmh SW 33.6 mph -54.1 kmh - - 2.5 mph 4.0 kmh
Wind Gusts 7.6 mph12.2 kmh 14.5 mph23.3 kmh - -
Humidity 65% 99% 54% 82%
Pressure 29.96 in1014.6 mb 30.06 in1017.9 mb 29.96 in1014.6 mb -
Precipitation - 1.18 in30.0 mm - -
Hour Temp Dew Point Humidity Winds Wind Gusts Pressure Precip Precip Rate Daily Precip Total
05:52 PM 83.1°F28.4°C 70.1°F21.2°C 65% 5.4 mph SW8.7 kmh SW 7.6 mph12.2 kmh 29.96 in1014.6 mb 0.00 in0.0 mm 0.00 in0.0 mm 1.18 in30.0 mm
05:47 PM 83.7°F28.7°C 70.2°F21.2°C 64% 3.8 mph WSW6.1 kmh WSW 6.9 mph11.1 kmh 29.96 in1014.6 mb 0.00 in0.0 mm 0.00 in0.0 mm 1.18 in30.0 mm
05:42 PM 84.2°F29.0°C 69.7°F20.9°C 62% 6.9 mph SW11.1 kmh SW 11.4 mph18.3 kmh 29.96 in1014.6 mb 0.00 in0.0 mm 0.00 in0.0 mm 1.18 in30.0 mm
05:37 PM 84.6°F29.2°C 70.5°F21.4°C 63% 3.1 mph SSE5.0 kmh SSE 5.4 mph8.7 kmh 29.96 in1014.6 mb 0.00 in0.0 mm 0.00 in0.0 mm 1.18 in30.0 mm
05:32 PM 84.4°F29.1°C 70.4°F21.3°C 63% 5.4 mph SW8.7 kmh SW 8.3 mph13.4 kmh 29.96 in1014.6 mb 0.00 in0.0 mm 0.00 in0.0 mm 1.18 in30.0 mm
05:27 PM 84.0°F28.9°C 70.0°F21.1°C 63% 4.5 mph SW7.2 kmh SW 7.6 mph12.2 kmh 29.96 in1014.6 mb 0.00 in0.0 mm 0.00 in0.0 mm 1.18 in30.0 mm
05:22 PM 84.4°F29.1°C 69.9°F21.1°C 62% 2.2 mph WSW3.5 kmh WSW 6.0 mph9.7 kmh 29.96 in1014.6 mb 0.00 in0.0 mm 0.00 in0.0 mm 1.18 in30.0 mm
05:17 PM 84.0°F28.9°C 67.6°F19.8°C 58% 4.5 mph SW7.2 kmh SW 6.9 mph11.1 kmh 29.96 in1014.6 mb 0.00 in0.0 mm 0.00 in0.0 mm 1.18 in30.0 mm
05:12 PM 83.8°F28.8°C 70.3°F21.3°C 64% 3.8 mph S6.1 kmh S 8.3 mph13.4 kmh 29.96 in1014.6 mb 0.00 in0.0 mm 0.00 in0.0 mm 1.18 in30.0 mm
05:07 PM 83.8°F28.8°C 71.7°F22.1°C 67% 3.8 mph WSW6.1 kmh WSW 8.3 mph13.4 kmh 29.96 in1014.6 mb 0.00 in0.0 mm 0.00 in0.0 mm 1.18 in30.0 mm
05:02 PM 83.3°F28.5°C 72.0°F22.2°C 69% 4.5 mph SW7.2 kmh SW 7.6 mph12.2 kmh 29.96 in1014.6 mb 0.00 in0.0 mm 0.00 in0.0 mm 1.18 in30.0 mm
04:57 PM 83.3°F28.5°C 72.0°F22.2°C 69% 4.5 mph S7.2 kmh S 6.9 mph11.1 kmh 29.96 in1014.6 mb 0.00 in0.0 mm 0.00 in0.0 mm 1.18 in30.0 mm
04:52 PM 84.0°F28.9°C 73.2°F22.9°C 70% 3.8 mph S6.1 kmh S 6.9 mph11.1 kmh 29.96 in1014.6 mb 0.00 in0.0 mm 0.00 in0.0 mm 1.18 in30.0 mm
04:47 PM 83.3°F28.5°C 72.9°F22.7°C 71% 4.5 mph SW7.2 kmh SW 9.8 mph15.8 kmh 29.97 in1014.9 mb 0.00 in0.0 mm 0.00 in0.0 mm 1.18 in30.0 mm
04:42 PM 83.8°F28.8°C 73.0°F22.8°C 70% 6.9 mph SW11.1 kmh SW 9.8 mph15.8 kmh 29.96 in1014.6 mb 0.00 in0.0 mm 0.00 in0.0 mm 1.18 in30.0 mm
04:37 PM 83.7°F28.7°C 73.2°F22.9°C 71% 4.5 mph SW7.2 kmh SW 6.9 mph11.1 kmh 29.96 in1014.6 mb 0.00 in0.0 mm 0.00 in0.0 mm 1.18 in30.0 mm
04:32 PM 83.7°F28.7°C 73.2°F22.9°C 71% 3.1 mph S5.0 kmh S 7.6 mph12.2 kmh 29.97 in1014.9 mb 0.00 in0.0 mm 0.00 in0.0 mm 1.18 in30.0 mm
04:27 PM 84.0°F28.9°C 73.2°F22.9°C 70% 3.8 mph NW6.1 kmh NW 8.3 mph13.4 kmh 29.96 in1014.6 mb 0.00 in0.0 mm 0.00 in0.0 mm 1.18 in30.0 mm
04:22 PM 83.3°F28.5°C 72.9°F22.7°C 71% 6.0 mph SW9.7 kmh SW 10.7 mph17.2 kmh 29.96 in1014.6 mb 0.00 in0.0 mm 0.00 in0.0 mm 1.18 in30.0 mm
04:17 PM 83.3°F28.5°C 72.9°F22.7°C 71% 5.4 mph SW8.7 kmh SW 9.2 mph14.8 kmh 29.97 in1014.9 mb 0.00 in0.0 mm 0.00 in0.0 mm 1.18 in30.0 mm
04:12 PM 83.3°F28.5°C 72.5°F22.5°C 70% 6.9 mph SW11.1 kmh SW 10.7 mph17.2 kmh 29.97 in1014.9 mb 0.00 in0.0 mm 0.00 in0.0 mm 1.18 in30.0 mm
04:07 PM 83.3°F28.5°C 72.9°F22.7°C 71% 5.4 mph SW8.7 kmh SW 11.4 mph18.3 kmh 29.97 in1014.9 mb 0.00 in0.0 mm 0.00 in0.0 mm 1.18 in30.0 mm
04:02 PM 83.7°F28.7°C 72.8°F22.7°C 70% 6.0 mph SW9.7 kmh SW 8.3 mph13.4 kmh 29.97 in1014.9 mb 0.00 in0.0 mm 0.00 in0.0 mm 1.18 in30.0 mm
03:57 PM 84.2°F29.0°C 72.5°F22.5°C 68% 8.3 mph WSW13.4 kmh WSW 14.5 mph23.3 kmh 29.97 in1014.9 mb 0.00 in0.0 mm 0.00 in0.0 mm 1.18 in30.0 mm
03:52 PM 84.0°F28.9°C 72.7°F22.6°C 69% 6.0 mph SW9.7 kmh SW 9.8 mph15.8 kmh 29.98 in1015.2 mb 0.00 in0.0 mm 0.00 in0.0 mm 1.18 in30.0 mm
03:47 PM 84.4°F29.1°C 73.1°F22.8°C 69% 4.5 mph S7.2 kmh S 7.6 mph12.2 kmh 29.98 in1015.2 mb 0.00 in0.0 mm 0.00 in0.0 mm 1.18 in30.0 mm
03:42 PM 83.8°F28.8°C 72.6°F22.6°C 69% 5.4 mph SW8.7 kmh SW 9.2 mph14.8 kmh 29.98 in1015.2 mb 0.00 in0.0 mm 0.00 in0.0 mm 1.18 in30.0 mm
03:37 PM 84.4°F29.1°C 72.2°F22.3°C 67% 6.9 mph NW11.1 kmh NW 11.4 mph18.3 kmh 29.98 in1015.2 mb 0.00 in0.0 mm 0.00 in0.0 mm 1.18 in30.0 mm
03:32 PM 85.1°F29.5°C 72.9°F22.7°C 67% 7.6 mph WNW12.2 kmh WNW 12.1 mph19.5 kmh 29.98 in1015.2 mb 0.00 in0.0 mm 0.00 in0.0 mm 1.18 in30.0 mm
03:27 PM 84.6°F29.2°C 72.4°F22.4°C 67% 4.5 mph S7.2 kmh S 11.4 mph18.3 kmh 29.98 in1015.2 mb 0.00 in0.0 mm 0.00 in0.0 mm 1.18 in30.0 mm
03:22 PM 84.0°F28.9°C 71.9°F22.2°C 67% 7.6 mph S12.2 kmh S 13.0 mph20.9 kmh 29.98 in1015.2 mb 0.00 in0.0 mm 0.00 in0.0 mm 1.18 in30.0 mm
03:17 PM 84.2°F29.0°C 71.6°F22.0°C 66% 5.4 mph SW8.7 kmh SW 11.4 mph18.3 kmh 29.98 in1015.2 mb 0.00 in0.0 mm 0.00 in0.0 mm 1.18 in30.0 mm
03:12 PM 85.8°F29.9°C 72.7°F22.6°C 65% 3.8 mph SW6.1 kmh SW 8.3 mph13.4 kmh 29.99 in1015.6 mb 0.00 in0.0 mm 0.00 in0.0 mm 1.18 in30.0 mm
03:07 PM 85.1°F29.5°C 72.9°F22.7°C 67% 3.8 mph S6.1 kmh S 9.2 mph14.8 kmh 29.99 in1015.6 mb 0.00 in0.0 mm 0.00 in0.0 mm 1.18 in30.0 mm
03:02 PM 83.7°F28.7°C 72.4°F22.4°C 69% 4.5 mph SW7.2 kmh SW 8.3 mph13.4 kmh 29.99 in1015.6 mb 0.00 in0.0 mm 0.00 in0.0 mm 1.18 in30.0 mm
02:57 PM 83.8°F28.8°C 71.7°F22.1°C 67% 7.6 mph NW12.2 kmh NW 10.7 mph17.2 kmh 29.99 in1015.6 mb 0.00 in0.0 mm 0.00 in0.0 mm 1.18 in30.0 mm
02:52 PM 84.4°F29.1°C 70.8°F21.6°C 64% 6.9 mph SW11.1 kmh SW 9.8 mph15.8 kmh 29.99 in1015.6 mb 0.00 in0.0 mm 0.00 in0.0 mm 1.18 in30.0 mm
02:47 PM 84.6°F29.2°C 71.0°F21.7°C 64% 3.1 mph WSW5.0 kmh WSW 4.5 mph7.2 kmh 29.99 in1015.6 mb 0.00 in0.0 mm 0.00 in0.0 mm 1.18 in30.0 mm
02:42 PM 85.5°F29.7°C 70.4°F21.3°C 61% 3.8 mph S6.1 kmh S 6.9 mph11.1 kmh 29.99 in1015.6 mb 0.00 in0.0 mm 0.00 in0.0 mm 1.18 in30.0 mm
02:37 PM 84.9°F29.4°C 70.4°F21.3°C 62% 2.2 mph SE3.5 kmh SE 3.8 mph6.1 kmh 30.00 in1015.9 mb 0.00 in0.0 mm 0.00 in0.0 mm 1.18 in30.0 mm
02:32 PM 85.5°F29.7°C 69.0°F20.6°C 58% 4.5 mph WSW7.2 kmh WSW 8.3 mph13.4 kmh 30.00 in1015.9 mb 0.00 in0.0 mm 0.00 in0.0 mm 1.18 in30.0 mm
02:27 PM 86.4°F30.2°C 68.3°F20.2°C 55% 3.8 mph SE6.1 kmh SE 6.9 mph11.1 kmh 30.00 in1015.9 mb 0.00 in0.0 mm 0.00 in0.0 mm 1.18 in30.0 mm
02:22 PM 86.0°F30.0°C 67.4°F19.7°C 54% 0.7 mph SW1.1 kmh SW 5.4 mph8.7 kmh 30.00 in1015.9 mb 0.00 in0.0 mm 0.00 in0.0 mm 1.18 in30.0 mm
02:17 PM 85.1°F29.5°C 66.6°F19.2°C 54% 5.4 mph S8.7 kmh S 7.6 mph12.2 kmh 30.01 in1016.3 mb 1.18 in30.0 mm 0.00 in0.0 mm 1.18 in30.0 mm
02:12 PM 84.4°F29.1°C 67.5°F19.7°C 57% 6.0 mph S9.7 kmh S 9.8 mph15.8 kmh 30.00 in1015.9 mb 1.18 in30.0 mm 0.00 in0.0 mm 1.18 in30.0 mm
02:07 PM 84.2°F29.0°C 66.8°F19.3°C 56% 3.8 mph S6.1 kmh S 9.2 mph14.8 kmh 30.01 in1016.3 mb 1.18 in30.0 mm 0.00 in0.0 mm 1.18 in30.0 mm
02:02 PM 85.3°F29.6°C 66.7°F19.3°C 54% 5.4 mph SW8.7 kmh SW 9.8 mph15.8 kmh 30.00 in1015.9 mb 1.18 in30.0 mm 0.00 in0.0 mm 1.18 in30.0 mm
01:57 PM 85.6°F29.8°C 67.1°F19.5°C 54% 5.4 mph SW8.7 kmh SW 9.8 mph15.8 kmh 30.01 in1016.3 mb 1.18 in30.0 mm 0.00 in0.0 mm 1.18 in30.0 mm
01:52 PM 85.1°F29.5°C 68.1°F20.1°C 57% 1.6 mph S2.6 kmh S 4.5 mph7.2 kmh 30.01 in1016.3 mb 1.18 in30.0 mm 0.00 in0.0 mm 1.18 in30.0 mm
01:47 PM 84.4°F29.1°C 67.5°F19.7°C 57% 6.9 mph S11.1 kmh S 11.4 mph18.3 kmh 30.01 in1016.3 mb 1.18 in30.0 mm 0.00 in0.0 mm 1.18 in30.0 mm
01:42 PM 84.2°F29.0°C 67.8°F19.9°C 58% 4.5 mph SW7.2 kmh SW 8.3 mph13.4 kmh 30.01 in1016.3 mb 1.18 in30.0 mm 0.00 in0.0 mm 1.18 in30.0 mm
01:37 PM 84.0°F28.9°C 68.6°F20.3°C 60% 5.4 mph SW8.7 kmh SW 9.2 mph14.8 kmh 30.02 in1016.6 mb 1.18 in30.0 mm 0.00 in0.0 mm 1.18 in30.0 mm
01:32 PM 83.7°F28.7°C 68.3°F20.2°C 60% 3.8 mph SW6.1 kmh SW 6.9 mph11.1 kmh 30.02 in1016.6 mb 1.18 in30.0 mm 0.00 in0.0 mm 1.18 in30.0 mm
01:27 PM 83.5°F28.6°C 68.6°F20.3°C 61% 5.4 mph SW8.7 kmh SW 10.7 mph17.2 kmh 30.02 in1016.6 mb 1.18 in30.0 mm 0.00 in0.0 mm 1.18 in30.0 mm
01:22 PM -- -- - 33.6 mph SSW54.1 kmh SSW 9.8 mph15.8 kmh -- 1.18 in30.0 mm 14.16 in359.7 mm 1.18 in30.0 mm
01:17 PM 85.1°F29.5°C 69.6°F20.9°C 60% 4.5 mph W7.2 kmh W 9.2 mph14.8 kmh 30.02 in1016.6 mb 0.00 in0.0 mm 0.00 in0.0 mm 0.00 in0.0 mm
01:12 PM 85.3°F29.6°C 70.3°F21.3°C 61% 5.4 mph SW8.7 kmh SW 7.6 mph12.2 kmh 30.03 in1016.9 mb 0.00 in0.0 mm 0.00 in0.0 mm 0.00 in0.0 mm
01:07 PM 84.7°F29.3°C 72.1°F22.3°C 66% 1.6 mph SSW2.6 kmh SSW 4.5 mph7.2 kmh 30.02 in1016.6 mb 0.00 in0.0 mm 0.00 in0.0 mm 0.00 in0.0 mm
01:02 PM 84.2°F29.0°C 72.5°F22.5°C 68% 3.8 mph SE6.1 kmh SE 6.9 mph11.1 kmh 30.03 in1016.9 mb 0.00 in0.0 mm 0.00 in0.0 mm 0.00 in0.0 mm
12:57 PM 84.0°F28.9°C 71.9°F22.2°C 67% 6.0 mph SSW9.7 kmh SSW 9.2 mph14.8 kmh 30.03 in1016.9 mb 0.00 in0.0 mm 0.00 in0.0 mm 0.00 in0.0 mm
12:52 PM 83.7°F28.7°C 73.2°F22.9°C 71% 4.5 mph S7.2 kmh S 7.6 mph12.2 kmh 30.03 in1016.9 mb 0.00 in0.0 mm 0.00 in0.0 mm 0.00 in0.0 mm
12:47 PM 83.3°F28.5°C 73.3°F22.9°C 72% 3.8 mph S6.1 kmh S 7.6 mph12.2 kmh 30.04 in1017.3 mb 0.00 in0.0 mm 0.00 in0.0 mm 0.00 in0.0 mm
12:42 PM 83.8°F28.8°C 73.0°F22.8°C 70% 3.8 mph S6.1 kmh S 8.3 mph13.4 kmh 30.04 in1017.3 mb 0.00 in0.0 mm 0.00 in0.0 mm 0.00 in0.0 mm
12:37 PM 83.8°F28.8°C 73.8°F23.2°C 72% 3.1 mph S5.0 kmh S 7.6 mph12.2 kmh 30.04 in1017.3 mb 0.00 in0.0 mm 0.00 in0.0 mm 0.00 in0.0 mm
12:32 PM 84.4°F29.1°C 73.9°F23.3°C 71% 3.8 mph S6.1 kmh S 6.0 mph9.7 kmh 30.04 in1017.3 mb 0.00 in0.0 mm 0.00 in0.0 mm 0.00 in0.0 mm
12:27 PM 83.7°F28.7°C 73.7°F23.2°C 72% 2.2 mph SE3.5 kmh SE 5.4 mph8.7 kmh 30.04 in1017.3 mb 0.00 in0.0 mm 0.00 in0.0 mm 0.00 in0.0 mm
12:22 PM 83.3°F28.5°C 73.7°F23.2°C 73% 3.8 mph SW6.1 kmh SW 7.6 mph12.2 kmh 30.04 in1017.3 mb 0.00 in0.0 mm 0.00 in0.0 mm 0.00 in0.0 mm
12:17 PM 83.5°F28.6°C 73.9°F23.3°C 73% 3.8 mph S6.1 kmh S 8.3 mph13.4 kmh 30.04 in1017.3 mb 0.00 in0.0 mm 0.00 in0.0 mm 0.00 in0.0 mm
12:12 PM 83.3°F28.5°C 73.7°F23.2°C 73% 4.5 mph S7.2 kmh S 6.9 mph11.1 kmh 30.04 in1017.3 mb 0.00 in0.0 mm 0.00 in0.0 mm 0.00 in0.0 mm
12:07 PM 83.1°F28.4°C 73.5°F23.1°C 73% 3.8 mph S6.1 kmh S 6.0 mph9.7 kmh 30.04 in1017.3 mb 0.00 in0.0 mm 0.00 in0.0 mm 0.00 in0.0 mm
12:02 PM 83.8°F28.8°C 73.0°F22.8°C 70% 3.8 mph SW6.1 kmh SW 6.0 mph9.7 kmh 30.04 in1017.3 mb 0.00 in0.0 mm 0.00 in0.0 mm 0.00 in0.0 mm
11:57 AM 84.6°F29.2°C 73.2°F22.9°C 69% 3.8 mph S6.1 kmh S 6.9 mph11.1 kmh 30.04 in1017.3 mb 0.00 in0.0 mm 0.00 in0.0 mm 0.00 in0.0 mm
11:52 AM 85.1°F29.5°C 73.8°F23.2°C 69% Calm Calm 2.2 mph3.5 kmh 30.05 in1017.6 mb 0.00 in0.0 mm 0.00 in0.0 mm 0.00 in0.0 mm
11:47 AM 85.3°F29.6°C 73.9°F23.3°C 69% 2.2 mph WNW3.5 kmh WNW 4.5 mph7.2 kmh 30.05 in1017.6 mb 0.00 in0.0 mm 0.00 in0.0 mm 0.00 in0.0 mm
11:42 AM 84.7°F29.3°C 73.4°F23.0°C 69% 1.6 mph S2.6 kmh S 3.8 mph6.1 kmh 30.05 in1017.6 mb 0.00 in0.0 mm 0.00 in0.0 mm 0.00 in0.0 mm
11:37 AM 84.4°F29.1°C 73.1°F22.8°C 69% 3.8 mph SSW6.1 kmh SSW 6.0 mph9.7 kmh 30.05 in1017.6 mb 0.00 in0.0 mm 0.00 in0.0 mm 0.00 in0.0 mm
11:32 AM 84.7°F29.3°C 72.5°F22.5°C 67% 3.1 mph S5.0 kmh S 7.6 mph12.2 kmh 30.05 in1017.6 mb 0.00 in0.0 mm 0.00 in0.0 mm 0.00 in0.0 mm
11:27 AM 84.7°F29.3°C 72.5°F22.5°C 67% 3.1 mph S5.0 kmh S 6.9 mph11.1 kmh 30.05 in1017.6 mb 0.00 in0.0 mm 0.00 in0.0 mm 0.00 in0.0 mm
11:22 AM 84.9°F29.4°C 71.8°F22.1°C 65% 4.5 mph S7.2 kmh S 8.3 mph13.4 kmh 30.05 in1017.6 mb 0.00 in0.0 mm 0.00 in0.0 mm 0.00 in0.0 mm
11:17 AM 84.6°F29.2°C 72.4°F22.4°C 67% Calm Calm 3.1 mph5.0 kmh 30.05 in1017.6 mb 0.00 in0.0 mm 0.00 in0.0 mm 0.00 in0.0 mm
11:12 AM 84.2°F29.0°C 71.6°F22.0°C 66% 4.5 mph SE7.2 kmh SE 6.9 mph11.1 kmh 30.05 in1017.6 mb 0.00 in0.0 mm 0.00 in0.0 mm 0.00 in0.0 mm
11:07 AM 84.9°F29.4°C 71.8°F22.1°C 65% 3.8 mph S6.1 kmh S 5.4 mph8.7 kmh 30.05 in1017.6 mb 0.00 in0.0 mm 0.00 in0.0 mm 0.00 in0.0 mm
11:02 AM 84.7°F29.3°C 71.2°F21.8°C 64% 3.1 mph S5.0 kmh S 5.4 mph8.7 kmh 30.06 in1017.9 mb 0.00 in0.0 mm 0.00 in0.0 mm 0.00 in0.0 mm
10:57 AM 84.6°F29.2°C 71.5°F21.9°C 65% 1.6 mph SW2.6 kmh SW 3.8 mph6.1 kmh 30.05 in1017.6 mb 0.00 in0.0 mm 0.00 in0.0 mm 0.00 in0.0 mm
10:52 AM 84.6°F29.2°C 71.5°F21.9°C 65% 2.2 mph SW3.5 kmh SW 6.0 mph9.7 kmh 30.05 in1017.6 mb 0.00 in0.0 mm 0.00 in0.0 mm 0.00 in0.0 mm
10:47 AM 84.2°F29.0°C 70.7°F21.5°C 64% 3.1 mph S5.0 kmh S 6.0 mph9.7 kmh 30.05 in1017.6 mb 0.00 in0.0 mm 0.00 in0.0 mm 0.00 in0.0 mm
10:42 AM 85.1°F29.5°C 71.5°F21.9°C 64% 3.1 mph S5.0 kmh S 6.0 mph9.7 kmh 30.05 in1017.6 mb 0.00 in0.0 mm 0.00 in0.0 mm 0.00 in0.0 mm
10:37 AM 85.1°F29.5°C 71.5°F21.9°C 64% 2.2 mph S3.5 kmh S 4.5 mph7.2 kmh 30.06 in1017.9 mb 0.00 in0.0 mm 0.00 in0.0 mm 0.00 in0.0 mm
10:32 AM 85.8°F29.9°C 70.8°F21.6°C 61% 3.1 mph SE5.0 kmh SE 6.9 mph11.1 kmh 30.06 in1017.9 mb 0.00 in0.0 mm 0.00 in0.0 mm 0.00 in0.0 mm
10:27 AM 86.0°F30.0°C 71.0°F21.7°C 61% 1.6 mph SSW2.6 kmh SSW 4.5 mph7.2 kmh 30.06 in1017.9 mb 0.00 in0.0 mm 0.00 in0.0 mm 0.00 in0.0 mm
10:22 AM 86.4°F30.2°C 71.8°F22.1°C 62% 2.2 mph SW3.5 kmh SW 4.5 mph7.2 kmh 30.06 in1017.9 mb 0.00 in0.0 mm 0.00 in0.0 mm 0.00 in0.0 mm
10:17 AM 86.0°F30.0°C 71.4°F21.9°C 62% Calm Calm 3.1 mph5.0 kmh 30.06 in1017.9 mb 0.00 in0.0 mm 0.00 in0.0 mm 0.00 in0.0 mm
10:12 AM 86.2°F30.1°C 71.1°F21.7°C 61% 1.6 mph S2.6 kmh S 6.9 mph11.1 kmh 30.06 in1017.9 mb 0.00 in0.0 mm 0.00 in0.0 mm 0.00 in0.0 mm
10:07 AM 86.5°F30.3°C 71.5°F21.9°C 61% 2.2 mph SSW3.5 kmh SSW 5.4 mph8.7 kmh 30.06 in1017.9 mb 0.00 in0.0 mm 0.00 in0.0 mm 0.00 in0.0 mm
10:02 AM 87.1°F30.6°C 71.0°F21.7°C 59% 2.2 mph S3.5 kmh S 4.5 mph7.2 kmh 30.05 in1017.6 mb 0.00 in0.0 mm 0.00 in0.0 mm 0.00 in0.0 mm
09:57 AM 87.8°F31.0°C 71.7°F22.1°C 59% 0.7 mph SW1.1 kmh SW 3.1 mph5.0 kmh 30.06 in1017.9 mb 0.00 in0.0 mm 0.00 in0.0 mm 0.00 in0.0 mm
09:52 AM 87.1°F30.6°C 72.4°F22.4°C 62% Calm Calm -- 30.06 in1017.9 mb 0.00 in0.0 mm 0.00 in0.0 mm 0.00 in0.0 mm
09:47 AM 87.1°F30.6°C 73.4°F23.0°C 64% Calm Calm 2.2 mph3.5 kmh 30.05 in1017.6 mb 0.00 in0.0 mm 0.00 in0.0 mm 0.00 in0.0 mm
09:42 AM 86.9°F30.5°C 73.2°F22.9°C 64% Calm Calm 1.6 mph2.6 kmh 30.05 in1017.6 mb 0.00 in0.0 mm 0.00 in0.0 mm 0.00 in0.0 mm
09:37 AM 86.9°F30.5°C 74.1°F23.4°C 66% Calm Calm 1.6 mph2.6 kmh 30.06 in1017.9 mb 0.00 in0.0 mm 0.00 in0.0 mm 0.00 in0.0 mm
09:32 AM 85.5°F29.7°C 75.0°F23.9°C 71% Calm Calm -- 30.05 in1017.6 mb 0.00 in0.0 mm 0.00 in0.0 mm 0.00 in0.0 mm
09:27 AM 84.7°F29.3°C 73.4°F23.0°C 69% Calm Calm 0.7 mph1.1 kmh 30.06 in1017.9 mb 0.00 in0.0 mm 0.00 in0.0 mm 0.00 in0.0 mm
09:22 AM 83.5°F28.6°C 74.3°F23.5°C 74% Calm Calm -- 30.06 in1017.9 mb 0.00 in0.0 mm 0.00 in0.0 mm 0.00 in0.0 mm
09:17 AM 82.4°F28.0°C 72.9°F22.7°C 73% 1.6 mph E2.6 kmh E 3.1 mph5.0 kmh 30.06 in1017.9 mb 0.00 in0.0 mm 0.00 in0.0 mm 0.00 in0.0 mm
09:12 AM 81.1°F27.3°C 72.8°F22.7°C 76% 3.1 mph NE5.0 kmh NE 4.5 mph7.2 kmh 30.06 in1017.9 mb 0.00 in0.0 mm 0.00 in0.0 mm 0.00 in0.0 mm
09:07 AM 80.4°F26.9°C 72.5°F22.5°C 77% 2.2 mph NE3.5 kmh NE 4.5 mph7.2 kmh 30.06 in1017.9 mb 0.00 in0.0 mm 0.00 in0.0 mm 0.00 in0.0 mm
09:02 AM 79.0°F26.1°C 72.3°F22.4°C 80% 3.8 mph WNW6.1 kmh WNW 4.5 mph7.2 kmh 30.05 in1017.6 mb 0.00 in0.0 mm 0.00 in0.0 mm 0.00 in0.0 mm
08:57 AM 78.6°F25.9°C 72.6°F22.6°C 82% 0.7 mph E1.1 kmh E 3.1 mph5.0 kmh 30.05 in1017.6 mb 0.00 in0.0 mm 0.00 in0.0 mm 0.00 in0.0 mm
08:52 AM 78.1°F25.6°C 72.5°F22.5°C 83% 2.2 mph NE3.5 kmh NE 4.5 mph7.2 kmh 30.05 in1017.6 mb 0.00 in0.0 mm 0.00 in0.0 mm 0.00 in0.0 mm
08:47 AM 77.7°F25.4°C 72.1°F22.3°C 83% 3.1 mph NW5.0 kmh NW 4.5 mph7.2 kmh 30.05 in1017.6 mb 0.00 in0.0 mm 0.00 in0.0 mm 0.00 in0.0 mm
08:42 AM 77.4°F25.2°C 72.5°F22.5°C 85% 3.8 mph NE6.1 kmh NE 6.9 mph11.1 kmh 30.05 in1017.6 mb 0.00 in0.0 mm 0.00 in0.0 mm 0.00 in0.0 mm
08:37 AM 76.6°F24.8°C 72.1°F22.3°C 86% 2.2 mph 3.5 kmh 3.8 mph6.1 kmh 30.05 in1017.6 mb 0.00 in0.0 mm 0.00 in0.0 mm 0.00 in0.0 mm
08:32 AM 76.8°F24.9°C 72.3°F22.4°C 86% 1.6 mph E2.6 kmh E 3.1 mph5.0 kmh 30.05 in1017.6 mb 0.00 in0.0 mm 0.00 in0.0 mm 0.00 in0.0 mm
08:27 AM 77.0°F25.0°C 72.1°F22.3°C 85% 1.6 mph E2.6 kmh E 3.8 mph6.1 kmh 30.04 in1017.3 mb 0.00 in0.0 mm 0.00 in0.0 mm 0.00 in0.0 mm
08:22 AM 77.0°F25.0°C 72.8°F22.7°C 87% 3.1 mph E5.0 kmh E 5.4 mph8.7 kmh 30.05 in1017.6 mb 0.00 in0.0 mm 0.00 in0.0 mm 0.00 in0.0 mm
08:17 AM 76.3°F24.6°C 72.8°F22.7°C 89% 1.6 mph E2.6 kmh E 3.8 mph6.1 kmh 30.04 in1017.3 mb 0.00 in0.0 mm 0.00 in0.0 mm 0.00 in0.0 mm
08:12 AM 75.6°F24.2°C 73.4°F23.0°C 93% 1.6 mph 2.6 kmh 4.5 mph7.2 kmh 30.04 in1017.3 mb 0.00 in0.0 mm 0.00 in0.0 mm 0.00 in0.0 mm
08:07 AM 73.8°F23.2°C 73.2°F22.9°C 98% 2.2 mph NE3.5 kmh NE 4.5 mph7.2 kmh 30.04 in1017.3 mb 0.00 in0.0 mm 0.00 in0.0 mm 0.00 in0.0 mm
08:02 AM 73.8°F23.2°C 73.2°F22.9°C 98% 2.2 mph NE3.5 kmh NE 4.5 mph7.2 kmh 30.04 in1017.3 mb 0.00 in0.0 mm 0.00 in0.0 mm 0.00 in0.0 mm
07:57 AM 73.6°F23.1°C 73.3°F22.9°C 99% 0.7 mph E1.1 kmh E 3.1 mph5.0 kmh 30.04 in1017.3 mb 0.00 in0.0 mm 0.00 in0.0 mm 0.00 in0.0 mm
07:52 AM 73.2°F22.9°C 72.9°F22.7°C 99% 1.6 mph E2.6 kmh E 3.8 mph6.1 kmh 30.04 in1017.3 mb 0.00 in0.0 mm 0.00 in0.0 mm 0.00 in0.0 mm
07:47 AM 73.0°F22.8°C 72.7°F22.6°C 99% 1.6 mph E2.6 kmh E 3.1 mph5.0 kmh 30.04 in1017.3 mb 0.00 in0.0 mm 0.00 in0.0 mm 0.00 in0.0 mm
07:42 AM 73.0°F22.8°C 72.7°F22.6°C 99% Calm Calm 1.6 mph2.6 kmh 30.04 in1017.3 mb 0.00 in0.0 mm 0.00 in0.0 mm 0.00 in0.0 mm
07:37 AM 72.9°F22.7°C 72.6°F22.6°C 99% 0.7 mph E1.1 kmh E 2.2 mph3.5 kmh 30.04 in1017.3 mb 0.00 in0.0 mm 0.00 in0.0 mm 0.00 in0.0 mm
07:32 AM 72.9°F22.7°C 72.6°F22.6°C 99% 2.2 mph E3.5 kmh E 3.8 mph6.1 kmh 30.04 in1017.3 mb 0.00 in0.0 mm 0.00 in0.0 mm 0.00 in0.0 mm
07:27 AM 72.9°F22.7°C 72.6°F22.6°C 99% Calm Calm 2.2 mph3.5 kmh 30.04 in1017.3 mb 0.00 in0.0 mm 0.00 in0.0 mm 0.00 in0.0 mm
07:22 AM 72.9°F22.7°C 72.6°F22.6°C 99% 1.6 mph E2.6 kmh E 4.5 mph7.2 kmh 30.04 in1017.3 mb 0.00 in0.0 mm 0.00 in0.0 mm 0.00 in0.0 mm
07:17 AM 72.9°F22.7°C 72.6°F22.6°C 99% 1.6 mph NE2.6 kmh NE 3.8 mph6.1 kmh 30.04 in1017.3 mb 0.00 in0.0 mm 0.00 in0.0 mm 0.00 in0.0 mm
07:12 AM 72.7°F22.6°C 72.4°F22.4°C 99% 1.6 mph E2.6 kmh E 3.8 mph6.1 kmh 30.04 in1017.3 mb 0.00 in0.0 mm 0.00 in0.0 mm 0.00 in0.0 mm
07:07 AM 72.9°F22.7°C 72.6°F22.6°C 99% 1.6 mph NE2.6 kmh NE 3.8 mph6.1 kmh 30.04 in1017.3 mb 0.00 in0.0 mm 0.00 in0.0 mm 0.00 in0.0 mm
07:02 AM 72.9°F22.7°C 72.6°F22.6°C 99% 1.6 mph NE2.6 kmh NE 3.8 mph6.1 kmh 30.04 in1017.3 mb 0.00 in0.0 mm 0.00 in0.0 mm 0.00 in0.0 mm
06:57 AM 72.9°F22.7°C 72.6°F22.6°C 99% Calm Calm 2.2 mph3.5 kmh 30.04 in1017.3 mb 0.00 in0.0 mm 0.00 in0.0 mm 0.00 in0.0 mm
06:52 AM 72.9°F22.7°C 72.6°F22.6°C 99% 2.2 mph E3.5 kmh E 5.4 mph8.7 kmh 30.03 in1016.9 mb 0.00 in0.0 mm 0.00 in0.0 mm 0.00 in0.0 mm
06:47 AM 73.0°F22.8°C 72.7°F22.6°C 99% 0.7 mph E1.1 kmh E 2.2 mph3.5 kmh 30.03 in1016.9 mb 0.00 in0.0 mm 0.00 in0.0 mm 0.00 in0.0 mm
06:42 AM 73.0°F22.8°C 72.7°F22.6°C 99% 0.7 mph E1.1 kmh E 2.2 mph3.5 kmh 30.03 in1016.9 mb 0.00 in0.0 mm 0.00 in0.0 mm 0.00 in0.0 mm
06:37 AM 73.2°F22.9°C 72.9°F22.7°C 99% 1.6 mph E2.6 kmh E 3.8 mph6.1 kmh 30.03 in1016.9 mb 0.00 in0.0 mm 0.00 in0.0 mm 0.00 in0.0 mm
06:32 AM 73.4°F23.0°C 73.1°F22.8°C 99% 2.2 mph NE3.5 kmh NE 3.8 mph6.1 kmh 30.03 in1016.9 mb 0.00 in0.0 mm 0.00 in0.0 mm 0.00 in0.0 mm
06:27 AM 73.4°F23.0°C 73.1°F22.8°C 99% Calm Calm -- 30.03 in1016.9 mb 0.00 in0.0 mm 0.00 in0.0 mm 0.00 in0.0 mm
06:22 AM 73.4°F23.0°C 73.1°F22.8°C 99% Calm Calm -- 30.03 in1016.9 mb 0.00 in0.0 mm 0.00 in0.0 mm 0.00 in0.0 mm
06:17 AM 73.4°F23.0°C 73.1°F22.8°C 99% Calm Calm -- 30.03 in1016.9 mb 0.00 in0.0 mm 0.00 in0.0 mm 0.00 in0.0 mm
06:12 AM 73.4°F23.0°C 73.1°F22.8°C 99% 1.6 mph NW2.6 kmh NW 3.1 mph5.0 kmh 30.03 in1016.9 mb 0.00 in0.0 mm 0.00 in0.0 mm 0.00 in0.0 mm
06:07 AM 73.4°F23.0°C 73.1°F22.8°C 99% 0.7 mph E1.1 kmh E 1.6 mph2.6 kmh 30.02 in1016.6 mb 0.00 in0.0 mm 0.00 in0.0 mm 0.00 in0.0 mm
06:02 AM 73.4°F23.0°C 73.1°F22.8°C 99% 2.2 mph E3.5 kmh E 4.5 mph7.2 kmh 30.02 in1016.6 mb 0.00 in0.0 mm 0.00 in0.0 mm 0.00 in0.0 mm
05:57 AM 73.4°F23.0°C 73.1°F22.8°C 99% Calm Calm 3.1 mph5.0 kmh 30.02 in1016.6 mb 0.00 in0.0 mm 0.00 in0.0 mm 0.00 in0.0 mm
05:52 AM 73.4°F23.0°C 73.1°F22.8°C 99% Calm Calm -- 30.02 in1016.6 mb 0.00 in0.0 mm 0.00 in0.0 mm 0.00 in0.0 mm
05:47 AM 73.4°F23.0°C 73.1°F22.8°C 99% 0.7 mph NW1.1 kmh NW 2.2 mph3.5 kmh 30.02 in1016.6 mb 0.00 in0.0 mm 0.00 in0.0 mm 0.00 in0.0 mm
05:42 AM 73.4°F23.0°C 73.1°F22.8°C 99% 1.6 mph E2.6 kmh E 3.8 mph6.1 kmh 30.02 in1016.6 mb 0.00 in0.0 mm 0.00 in0.0 mm 0.00 in0.0 mm
05:37 AM 73.4°F23.0°C 73.1°F22.8°C 99% 0.7 mph E1.1 kmh E 1.6 mph2.6 kmh 30.02 in1016.6 mb 0.00 in0.0 mm 0.00 in0.0 mm 0.00 in0.0 mm
05:32 AM 73.4°F23.0°C 73.1°F22.8°C 99% 0.7 mph NE1.1 kmh NE 3.1 mph5.0 kmh 30.02 in1016.6 mb 0.00 in0.0 mm 0.00 in0.0 mm 0.00 in0.0 mm
05:27 AM 73.2°F22.9°C 72.9°F22.7°C 99% 2.2 mph E3.5 kmh E 3.8 mph6.1 kmh 30.02 in1016.6 mb 0.00 in0.0 mm 0.00 in0.0 mm 0.00 in0.0 mm
05:22 AM 73.2°F22.9°C 72.9°F22.7°C 99% 1.6 mph E2.6 kmh E 3.1 mph5.0 kmh 30.02 in1016.6 mb 0.00 in0.0 mm 0.00 in0.0 mm 0.00 in0.0 mm
05:17 AM 73.4°F23.0°C 73.1°F22.8°C 99% 0.7 mph NW1.1 kmh NW 3.1 mph5.0 kmh 30.02 in1016.6 mb 0.00 in0.0 mm 0.00 in0.0 mm 0.00 in0.0 mm
05:12 AM 73.2°F22.9°C 72.9°F22.7°C 99% 2.2 mph NE3.5 kmh NE 4.5 mph7.2 kmh 30.02 in1016.6 mb 0.00 in0.0 mm 0.00 in0.0 mm 0.00 in0.0 mm
05:07 AM 73.4°F23.0°C 73.1°F22.8°C 99% 1.6 mph E2.6 kmh E 4.5 mph7.2 kmh 30.02 in1016.6 mb 0.00 in0.0 mm 0.00 in0.0 mm 0.00 in0.0 mm
05:02 AM 73.4°F23.0°C 73.1°F22.8°C 99% 0.7 mph NE1.1 kmh NE 2.2 mph3.5 kmh 30.02 in1016.6 mb 0.00 in0.0 mm 0.00 in0.0 mm 0.00 in0.0 mm
04:57 AM 73.4°F23.0°C 73.1°F22.8°C 99% 1.6 mph NE2.6 kmh NE 3.8 mph6.1 kmh 30.03 in1016.9 mb 0.00 in0.0 mm 0.00 in0.0 mm 0.00 in0.0 mm
04:52 AM 73.4°F23.0°C 73.1°F22.8°C 99% 0.7 mph E1.1 kmh E 3.1 mph5.0 kmh 30.02 in1016.6 mb 0.00 in0.0 mm 0.00 in0.0 mm 0.00 in0.0 mm
04:47 AM 73.4°F23.0°C 73.1°F22.8°C 99% 2.2 mph E3.5 kmh E 3.8 mph6.1 kmh 30.03 in1016.9 mb 0.00 in0.0 mm 0.00 in0.0 mm 0.00 in0.0 mm
04:42 AM 73.4°F23.0°C 73.1°F22.8°C 99% 2.2 mph NE3.5 kmh NE 4.5 mph7.2 kmh 30.03 in1016.9 mb 0.00 in0.0 mm 0.00 in0.0 mm 0.00 in0.0 mm
04:37 AM 73.6°F23.1°C 73.3°F22.9°C 99% 2.2 mph E3.5 kmh E 3.1 mph5.0 kmh 30.03 in1016.9 mb 0.00 in0.0 mm 0.00 in0.0 mm 0.00 in0.0 mm
04:32 AM 73.6°F23.1°C 73.3°F22.9°C 99% Calm Calm 1.6 mph2.6 kmh 30.03 in1016.9 mb 0.00 in0.0 mm 0.00 in0.0 mm 0.00 in0.0 mm
04:27 AM 73.8°F23.2°C 73.5°F23.1°C 99% Calm Calm -- 30.03 in1016.9 mb 0.00 in0.0 mm 0.00 in0.0 mm 0.00 in0.0 mm
04:22 AM 73.6°F23.1°C 73.3°F22.9°C 99% 0.7 mph E1.1 kmh E 2.2 mph3.5 kmh 30.03 in1016.9 mb 0.00 in0.0 mm 0.00 in0.0 mm 0.00 in0.0 mm
04:17 AM 73.6°F23.1°C 73.3°F22.9°C 99% 0.7 mph E1.1 kmh E 2.2 mph3.5 kmh 30.03 in1016.9 mb 0.00 in0.0 mm 0.00 in0.0 mm 0.00 in0.0 mm
04:12 AM 73.8°F23.2°C 73.5°F23.1°C 99% 1.6 mph E2.6 kmh E 3.1 mph5.0 kmh 30.03 in1016.9 mb 0.00 in0.0 mm 0.00 in0.0 mm 0.00 in0.0 mm
04:07 AM 73.8°F23.2°C 73.5°F23.1°C 99% 0.7 mph E1.1 kmh E 2.2 mph3.5 kmh 30.03 in1016.9 mb 0.00 in0.0 mm 0.00 in0.0 mm 0.00 in0.0 mm
04:02 AM 73.9°F23.3°C 73.6°F23.1°C 99% Calm Calm 2.2 mph3.5 kmh 30.02 in1016.6 mb 0.00 in0.0 mm 0.00 in0.0 mm 0.00 in0.0 mm
03:57 AM 73.9°F23.3°C 73.6°F23.1°C 99% 1.6 mph 2.6 kmh 4.5 mph7.2 kmh 30.03 in1016.9 mb 0.00 in0.0 mm 0.00 in0.0 mm 0.00 in0.0 mm
03:52 AM 73.8°F23.2°C 73.5°F23.1°C 99% Calm Calm 1.6 mph2.6 kmh 30.03 in1016.9 mb 0.00 in0.0 mm 0.00 in0.0 mm 0.00 in0.0 mm
03:47 AM 73.8°F23.2°C 73.5°F23.1°C 99% 0.7 mph E1.1 kmh E 1.6 mph2.6 kmh 30.03 in1016.9 mb 0.00 in0.0 mm 0.00 in0.0 mm 0.00 in0.0 mm
03:42 AM 73.8°F23.2°C 73.5°F23.1°C 99% Calm Calm -- 30.03 in1016.9 mb 0.00 in0.0 mm 0.00 in0.0 mm 0.00 in0.0 mm
03:37 AM 73.8°F23.2°C 73.5°F23.1°C 99% Calm Calm 2.2 mph3.5 kmh 30.04 in1017.3 mb 0.00 in0.0 mm 0.00 in0.0 mm 0.00 in0.0 mm
03:32 AM 73.6°F23.1°C 73.3°F22.9°C 99% Calm Calm -- 30.03 in1016.9 mb 0.00 in0.0 mm 0.00 in0.0 mm 0.00 in0.0 mm
03:27 AM 73.4°F23.0°C 73.1°F22.8°C 99% Calm Calm 1.6 mph2.6 kmh 30.03 in1016.9 mb 0.00 in0.0 mm 0.00 in0.0 mm 0.00 in0.0 mm
03:22 AM 73.4°F23.0°C 73.1°F22.8°C 99% 0.7 mph NW1.1 kmh NW 1.6 mph2.6 kmh 30.04 in1017.3 mb 0.00 in0.0 mm 0.00 in0.0 mm 0.00 in0.0 mm
03:17 AM 73.4°F23.0°C 73.1°F22.8°C 99% 0.7 mph E1.1 kmh E 2.2 mph3.5 kmh 30.04 in1017.3 mb 0.00 in0.0 mm 0.00 in0.0 mm 0.00 in0.0 mm
03:12 AM 73.4°F23.0°C 73.1°F22.8°C 99% 0.7 mph SW1.1 kmh SW 3.1 mph5.0 kmh 30.04 in1017.3 mb 0.00 in0.0 mm 0.00 in0.0 mm 0.00 in0.0 mm
03:07 AM 73.2°F22.9°C 72.9°F22.7°C 99% 0.7 mph E1.1 kmh E 2.2 mph3.5 kmh 30.04 in1017.3 mb 0.00 in0.0 mm 0.00 in0.0 mm 0.00 in0.0 mm
03:02 AM 73.2°F22.9°C 72.9°F22.7°C 99% 0.7 mph E1.1 kmh E 2.2 mph3.5 kmh 30.03 in1016.9 mb 0.00 in0.0 mm 0.00 in0.0 mm 0.00 in0.0 mm
02:57 AM 73.2°F22.9°C 72.9°F22.7°C 99% Calm Calm 0.7 mph1.1 kmh 30.04 in1017.3 mb 0.00 in0.0 mm 0.00 in0.0 mm 0.00 in0.0 mm
02:52 AM 73.0°F22.8°C 72.7°F22.6°C 99% 1.6 mph E2.6 kmh E 3.1 mph5.0 kmh 30.04 in1017.3 mb 0.00 in0.0 mm 0.00 in0.0 mm 0.00 in0.0 mm
02:47 AM 73.0°F22.8°C 72.7°F22.6°C 99% 0.7 mph E1.1 kmh E 2.2 mph3.5 kmh 30.04 in1017.3 mb 0.00 in0.0 mm 0.00 in0.0 mm 0.00 in0.0 mm
02:42 AM 73.0°F22.8°C 72.7°F22.6°C 99% 1.6 mph E2.6 kmh E 3.1 mph5.0 kmh 30.04 in1017.3 mb 0.00 in0.0 mm 0.00 in0.0 mm 0.00 in0.0 mm
02:37 AM 73.0°F22.8°C 72.7°F22.6°C 99% 0.7 mph E1.1 kmh E 2.2 mph3.5 kmh 30.04 in1017.3 mb 0.00 in0.0 mm 0.00 in0.0 mm 0.00 in0.0 mm
02:32 AM 73.2°F22.9°C 72.9°F22.7°C 99% 1.6 mph E2.6 kmh E 3.1 mph5.0 kmh 30.04 in1017.3 mb 0.00 in0.0 mm 0.00 in0.0 mm 0.00 in0.0 mm
02:27 AM 73.4°F23.0°C 73.1°F22.8°C 99% 1.6 mph E2.6 kmh E 3.8 mph6.1 kmh 30.04 in1017.3 mb 0.00 in0.0 mm 0.00 in0.0 mm 0.00 in0.0 mm
02:22 AM 73.4°F23.0°C 73.1°F22.8°C 99% 0.7 mph E1.1 kmh E 2.2 mph3.5 kmh 30.04 in1017.3 mb 0.00 in0.0 mm 0.00 in0.0 mm 0.00 in0.0 mm
02:17 AM 73.4°F23.0°C 73.1°F22.8°C 99% Calm Calm -- 30.04 in1017.3 mb 0.00 in0.0 mm 0.00 in0.0 mm 0.00 in0.0 mm
02:12 AM 73.6°F23.1°C 73.3°F22.9°C 99% 0.7 mph E1.1 kmh E 2.2 mph3.5 kmh 30.04 in1017.3 mb 0.00 in0.0 mm 0.00 in0.0 mm 0.00 in0.0 mm
02:07 AM 73.8°F23.2°C 73.5°F23.1°C 99% Calm Calm 1.6 mph2.6 kmh 30.05 in1017.6 mb 0.00 in0.0 mm 0.00 in0.0 mm 0.00 in0.0 mm
02:02 AM 73.8°F23.2°C 73.5°F23.1°C 99% Calm Calm 1.6 mph2.6 kmh 30.04 in1017.3 mb 0.00 in0.0 mm 0.00 in0.0 mm 0.00 in0.0 mm
01:57 AM 73.8°F23.2°C 73.5°F23.1°C 99% 0.7 mph NW1.1 kmh NW 3.1 mph5.0 kmh 30.04 in1017.3 mb 0.00 in0.0 mm 0.00 in0.0 mm 0.00 in0.0 mm
01:52 AM 73.6°F23.1°C 73.3°F22.9°C 99% Calm Calm 1.6 mph2.6 kmh 30.05 in1017.6 mb 0.00 in0.0 mm 0.00 in0.0 mm 0.00 in0.0 mm
01:47 AM 73.8°F23.2°C 73.5°F23.1°C 99% 0.7 mph NW1.1 kmh NW 3.1 mph5.0 kmh 30.04 in1017.3 mb 0.00 in0.0 mm 0.00 in0.0 mm 0.00 in0.0 mm
01:42 AM 73.8°F23.2°C 73.5°F23.1°C 99% 0.7 mph E1.1 kmh E 1.6 mph2.6 kmh 30.04 in1017.3 mb 0.00 in0.0 mm 0.00 in0.0 mm 0.00 in0.0 mm
01:37 AM 74.1°F23.4°C 73.8°F23.2°C 99% 0.7 mph E1.1 kmh E 2.2 mph3.5 kmh 30.05 in1017.6 mb 0.00 in0.0 mm 0.00 in0.0 mm 0.00 in0.0 mm
01:32 AM 73.6°F23.1°C 73.3°F22.9°C 99% Calm Calm -- 30.05 in1017.6 mb 0.00 in0.0 mm 0.00 in0.0 mm 0.00 in0.0 mm
01:27 AM 73.8°F23.2°C 73.5°F23.1°C 99% Calm Calm 2.2 mph3.5 kmh 30.05 in1017.6 mb 0.00 in0.0 mm 0.00 in0.0 mm 0.00 in0.0 mm
01:22 AM 73.8°F23.2°C 73.5°F23.1°C 99% Calm Calm 2.2 mph3.5 kmh 30.05 in1017.6 mb 0.00 in0.0 mm 0.00 in0.0 mm 0.00 in0.0 mm
01:17 AM 73.6°F23.1°C 73.3°F22.9°C 99% Calm Calm -- 30.05 in1017.6 mb 0.00 in0.0 mm 0.00 in0.0 mm 0.00 in0.0 mm
01:12 AM 73.6°F23.1°C 73.3°F22.9°C 99% 0.7 mph 1.1 kmh 2.2 mph3.5 kmh 30.05 in1017.6 mb 0.00 in0.0 mm 0.00 in0.0 mm 0.00 in0.0 mm
01:07 AM 73.6°F23.1°C 73.3°F22.9°C 99% 0.7 mph E1.1 kmh E 3.1 mph5.0 kmh 30.05 in1017.6 mb 0.00 in0.0 mm 0.00 in0.0 mm 0.00 in0.0 mm
01:02 AM 73.6°F23.1°C 73.3°F22.9°C 99% 0.7 mph E1.1 kmh E 3.1 mph5.0 kmh 30.05 in1017.6 mb 0.00 in0.0 mm 0.00 in0.0 mm 0.00 in0.0 mm
12:57 AM 73.6°F23.1°C 73.3°F22.9°C 99% 1.6 mph 2.6 kmh 3.1 mph5.0 kmh 30.05 in1017.6 mb 0.00 in0.0 mm 0.00 in0.0 mm 0.00 in0.0 mm
12:52 AM 73.8°F23.2°C 73.5°F23.1°C 99% 0.7 mph E1.1 kmh E 2.2 mph3.5 kmh 30.05 in1017.6 mb 0.00 in0.0 mm 0.00 in0.0 mm 0.00 in0.0 mm
12:47 AM 73.8°F23.2°C 73.5°F23.1°C 99% 1.6 mph E2.6 kmh E 3.1 mph5.0 kmh 30.05 in1017.6 mb 0.00 in0.0 mm 0.00 in0.0 mm 0.00 in0.0 mm
12:42 AM 73.9°F23.3°C 73.6°F23.1°C 99% 1.6 mph E2.6 kmh E 3.1 mph5.0 kmh 30.05 in1017.6 mb 0.00 in0.0 mm 0.00 in0.0 mm 0.00 in0.0 mm
12:37 AM 73.9°F23.3°C 73.6°F23.1°C 99% 2.2 mph E3.5 kmh E 3.8 mph6.1 kmh 30.05 in1017.6 mb 0.00 in0.0 mm 0.00 in0.0 mm 0.00 in0.0 mm
12:32 AM 73.9°F23.3°C 73.6°F23.1°C 99% Calm Calm -- 30.05 in1017.6 mb 0.00 in0.0 mm 0.00 in0.0 mm 0.00 in0.0 mm
12:27 AM 73.9°F23.3°C 73.6°F23.1°C 99% Calm Calm 2.2 mph3.5 kmh 30.05 in1017.6 mb 0.00 in0.0 mm 0.00 in0.0 mm 0.00 in0.0 mm
12:22 AM 74.1°F23.4°C 73.8°F23.2°C 99% Calm Calm -- 30.05 in1017.6 mb 0.00 in0.0 mm 0.00 in0.0 mm 0.00 in0.0 mm
12:17 AM 74.1°F23.4°C 73.8°F23.2°C 99% Calm Calm -- 30.06 in1017.9 mb 0.00 in0.0 mm 0.00 in0.0 mm 0.00 in0.0 mm
12:12 AM 74.3°F23.5°C 74.0°F23.3°C 99% Calm Calm -- 30.06 in1017.9 mb 0.00 in0.0 mm 0.00 in0.0 mm 0.00 in0.0 mm
12:07 AM 74.5°F23.6°C 73.9°F23.3°C 98% Calm Calm -- 30.05 in1017.6 mb 0.00 in0.0 mm 0.00 in0.0 mm 0.00 in0.0 mm
12:02 AM 74.5°F23.6°C 73.9°F23.3°C 98% Calm Calm -- 30.05 in1017.6 mb 0.00 in0.0 mm 0.00 in0.0 mm 0.00 in0.0 mm